Paxton, Massachusetts
Current Conditions -  °F | °C
As of 4:54 PM on Friday 28 Nov 2014 (Local Time) from KORH Reporting Station
Broken Clouds Broken Clouds  
Wind Chill: 16°   Ceiling: 4500
Heat Index: 26°   Visibility: 10mi
Dew Point: 17°   Wind: 10mph
Humidity: 69%   Direction: 280°W
Pressure: 30.08"   Gusts: NA
Location:  42.31°N, 71.93°W
Report Text: KORH 282154Z 28009KT 10SM BKN045 M03/M08 A3008 RMK AO2 SLP201 T10331083
Loading
Personal Weather Stations






























Interactive Weather Map New forecast layout! Learn more

10-Day Weather Forecast

Advertisements
Track Severe Weather on mobile